KFPK

Fitch H Beach Airport

Charlotte, Michigan, USA
METAR KFPK 250515Z AUTO 00000KT 10SM CLR 15/11 A3006 RMK AO2 T01500113
Observed Flight Rules
May-25 @ 05:15 UTC (9 minutes ago) Visual Flight Rules
Visibility Clouds
10 miles
  • Clear skies
Temperatures Readings
Current 15°C / 59°F
Dewpoint 11°C / 52°F
Humidity 77%
Altimeter 30.06" Hg
Pressure 1018 hPa
Elevation 272
METAR KFPK 250515Z AUTO 00000KT 10SM CLR 15/11 A3006 RMK AO2 T01500113
Observed Flight Rules
May-25 @ 05:15 UTC
(9 minutes ago)
VFR
Clouds
  • Clear skies
Temperature Dewpoint
15°C / 59°F 11°C / 52°F
Humidity Altimeter Pressure
77% 30.06" Hg 1018 hPa